Date,TemperatureHighF,TemperatureAvgF,TemperatureLowF,DewpointHighF,DewpointAvgF,DewpointLowF,HumidityHigh,HumidityAvg,HumidityLow,PressureMaxIn,PressureMinIn,WindSpeedMaxMPH,WindSpeedAvgMPH,GustSpeedMaxMPH,PrecipitationSumIn
2013-9-1,88.7,79.0,73.4,74.0,70.9,65.8,100,59,1,29.92,29.87,8,0,8,0.00
2013-9-2,82.3,74.5,67.3,73.8,71.0,67.3,100,58,1,29.99,29.87,24,1,24,0.00
2013-9-3,85.8,77.4,71.3,73.8,68.7,62.7,100,51,1,30.03,29.92,10,0,10,0.00
2013-9-4,86.0,74.2,64.9,69.7,65.4,61.4,100,49,1,30.14,30.01,2,0,2,0.00
2013-9-5,86.2,71.6,62.3,67.9,64.9,61.7,100,56,1,30.18,30.10,2,0,3,0.00
2013-9-6,87.9,74.2,63.2,70.2,65.8,58.5,100,51,1,30.16,30.06,2,0,3,0.00
2013-9-7,89.0,75.9,65.9,72.6,69.4,65.7,100,55,1,30.12,30.01,6,0,7,0.00
2013-9-8,89.6,77.1,66.1,72.8,69.5,63.3,100,55,1,30.04,29.95,4,0,6,0.00
2013-9-9,90.1,79.2,70.3,74.5,71.5,68.1,100,53,1,30.09,30.00,8,0,10,0.00
2013-9-10,90.7,78.9,71.5,74.5,71.8,69.2,100,60,1,30.19,30.09,14,0,14,0.00
2013-9-11,90.1,78.1,68.6,72.2,69.4,65.6,100,59,1,30.22,30.10,8,0,8,0.00
2013-9-12,88.5,76.2,66.9,71.9,68.4,65.0,100,62,1,30.11,29.93,20,0,20,0.00
2013-9-13,81.2,71.6,62.0,70.0,62.2,52.0,100,58,1,29.99,29.91,6,0,6,0.00
2013-9-14,76.1,63.0,54.0,56.5,53.5,51.4,91,49,1,30.06,29.99,4,0,4,0.00
2013-9-15,83.1,68.4,57.0,64.8,60.1,56.0,100,79,40,30.13,30.06,2,0,7,0.00
2013-9-16,86.8,74.1,59.5,66.0,61.0,56.8,100,63,1,30.17,30.09,2,0,3,0.00
2013-9-17,87.3,79.2,70.8,69.9,66.7,63.9,83,54,1,30.18,30.07,6,0,8,0.00
2013-9-18,82.3,72.5,65.3,69.1,64.5,60.6,88,57,1,30.20,30.09,12,0,12,0.00
2013-9-19,85.2,73.9,65.1,67.8,65.0,63.0,96,51,1,30.17,30.05,12,0,12,0.00
2013-9-20,86.6,74.5,64.6,71.0,65.6,62.7,100,54,1,30.07,29.86,14,1,14,0.00
2013-9-21,71.7,67.3,60.7,71.0,63.7,54.9,100,59,1,29.88,29.76,12,0,12,0.00
2013-9-22,77.0,64.6,54.5,56.8,54.7,51.4,95,48,1,29.92,29.86,4,0,6,0.00
2013-9-23,82.7,66.6,53.9,64.0,59.1,53.9,100,53,1,29.99,29.91,4,0,4,0.00
2013-9-24,72.0,68.8,65.4,67.6,66.0,60.8,99,66,1,29.99,29.86,6,0,6,0.00
2013-9-25,75.9,69.1,65.4,67.9,66.1,64.0,100,60,1,29.89,29.81,6,0,6,0.00
2013-9-26,80.8,70.2,63.3,66.3,63.9,61.5,100,56,1,30.02,29.88,4,0,5,0.00
2013-9-27,81.6,68.7,59.6,66.3,61.7,58.3,100,56,1,30.13,30.01,6,0,6,0.00
2013-9-28,79.1,66.8,57.9,60.2,58.2,54.6,100,57,1,30.21,30.08,10,0,10,0.00
2013-9-29,75.9,66.1,57.5,60.3,57.5,54.5,93,58,1,30.13,30.01,10,0,10,0.00
2013-9-30,74.7,66.3,61.7,64.3,60.6,56.9,99,63,1,30.09,29.99,10,0,10,0.00